Time;durP1;ratioP1;P1;durP2;ratioP2;P2;SDS_P1;SDS_P2;PMS_P1;PMS_P2;Temp;Humidity;BMP_temperature;BMP_pressure;BME280_temperature;BME280_humidity;BME280_pressure;Samples;Min_cycle;Max_cycle;Signal;HPM_P1;HPM_P2
2021/05/29 00:01:15;;;;;;;15.48;9.35;;;;;;;14.61;100.00;99574.87;1692305;84;21599;-80
2021/05/29 00:03:42;;;;;;;20.27;12.03;;;;;;;14.58;100.00;99563.97;1687215;84;21646;-80
2021/05/29 00:06:11;;;;;;;17.90;11.30;;;;;;;14.58;100.00;99569.75;1690342;80;21631;-82
2021/05/29 00:08:38;;;;;;;15.38;9.95;;;;;;;14.56;100.00;99567.66;1685458;84;20899;-82
2021/05/29 00:11:11;;;;;;;15.48;10.63;;;;;;;14.53;100.00;99562.53;1684705;84;21552;-79
2021/05/29 00:13:37;;;;;;;7.78;5.95;;;;;;;14.47;100.00;99559.33;1647527;86;21571;-81
2021/05/29 00:16:05;;;;;;;15.85;9.03;;;;;;;14.41;100.00;99553.08;1635263;86;21104;-80
2021/05/29 00:18:32;;;;;;;13.72;10.10;;;;;;;14.39;100.00;99552.31;1643889;86;21106;-81
2021/05/29 00:20:59;;;;;;;13.43;9.58;;;;;;;14.35;100.00;99552.12;1657028;78;21057;-73
2021/05/29 00:23:26;;;;;;;16.27;10.32;;;;;;;14.31;100.00;99547.98;1685780;83;21096;-72
2021/05/29 00:25:52;;;;;;;17.07;10.45;;;;;;;14.26;100.00;99550.03;1672422;85;21555;-71
2021/05/29 00:28:21;;;;;;;22.73;10.95;;;;;;;14.21;100.00;99548.15;1672039;85;21670;-73
2021/05/29 00:30:48;;;;;;;17.90;11.80;;;;;;;14.11;100.00;99541.73;1671365;85;20945;-72
2021/05/29 00:33:14;;;;;;;16.12;11.83;;;;;;;14.04;100.00;99538.13;1660563;85;21005;-71
2021/05/29 00:35:42;;;;;;;16.25;11.70;;;;;;;14.00;100.00;99545.86;1680207;83;21602;-71
2021/05/29 00:38:09;;;;;;;20.30;12.18;;;;;;;13.98;100.00;99541.13;1705210;81;21024;-74
2021/05/29 00:40:37;;;;;;;13.25;8.48;;;;;;;13.98;100.00;99538.48;1703471;82;21751;-74
2021/05/29 00:43:04;;;;;;;17.15;12.33;;;;;;;13.99;100.00;99540.20;1741407;82;20925;-75
2021/05/29 00:45:31;;;;;;;13.15;9.20;;;;;;;13.98;100.00;99531.86;1726453;82;20901;-76
2021/05/29 00:48:01;;;;;;;13.65;10.15;;;;;;;13.97;100.00;99528.85;1747785;82;21010;-75
2021/05/29 00:50:28;;;;;;;23.10;14.18;;;;;;;13.96;100.00;99535.07;1736343;82;21067;-75
2021/05/29 00:52:55;;;;;;;11.60;8.53;;;;;;;13.97;100.00;99526.20;1684808;80;76161;-90
2021/05/29 00:55:22;;;;;;;26.33;15.25;;;;;;;13.96;100.00;99535.07;1679762;85;20990;-86
2021/05/29 00:57:51;;;;;;;21.95;13.08;;;;;;;13.97;100.00;99530.17;1679399;83;20968;-87
2021/05/29 01:00:21;;;;;;;21.10;12.98;;;;;;;13.98;100.00;99529.22;1683094;83;21631;-85
2021/05/29 01:02:48;;;;;;;26.77;16.55;;;;;;;13.99;100.00;99526.13;1676774;83;21115;-83
2021/05/29 01:05:18;;;;;;;25.30;16.37;;;;;;;14.00;100.00;99530.45;1693553;82;21114;-73
2021/05/29 01:07:52;;;;;;;25.68;17.10;;;;;;;13.97;100.00;99519.59;1697495;84;20936;-76
2021/05/29 01:10:23;;;;;;;28.55;17.37;;;;;;;13.96;100.00;99523.16;1669240;85;21031;-76
2021/05/29 01:12:52;;;;;;;24.65;14.00;;;;;;;13.96;100.00;99524.48;1672635;83;21023;-76
2021/05/29 01:15:20;;;;;;;31.12;16.35;;;;;;;13.96;100.00;99528.45;1668932;86;20951;-77
2021/05/29 01:17:47;;;;;;;25.27;16.00;;;;;;;13.92;100.00;99515.05;1668962;86;21142;-75
2021/05/29 01:20:14;;;;;;;19.48;11.10;;;;;;;13.94;100.00;99512.29;1653885;82;21033;-85
2021/05/29 01:22:49;;;;;;;25.15;14.73;;;;;;;13.93;100.00;99504.83;1631261;87;21024;-84
2021/05/29 01:25:27;;;;;;;24.00;13.58;;;;;;;13.95;100.00;99494.16;1651058;86;21052;-85
2021/05/29 01:28:03;;;;;;;21.65;14.80;;;;;;;13.95;100.00;99497.64;1660649;86;21010;-86
2021/05/29 01:30:32;;;;;;;23.55;15.35;;;;;;;13.94;100.00;99494.64;1658755;86;21087;-83
2021/05/29 01:32:59;;;;;;;18.45;12.28;;;;;;;13.92;100.00;99497.84;1661151;86;21614;-87
2021/05/29 01:35:26;;;;;;;23.47;14.63;;;;;;;13.92;100.00;99497.84;1688951;82;20894;-77
2021/05/29 01:37:53;;;;;;;20.95;14.07;;;;;;;13.94;100.00;99494.64;1707046;83;20977;-76
2021/05/29 01:40:20;;;;;;;17.67;11.33;;;;;;;13.94;100.00;99494.64;1695068;84;20938;-77
2021/05/29 01:42:48;;;;;;;26.82;16.77;;;;;;;13.95;100.00;99492.35;1699021;82;21662;-76
2021/05/29 01:45:15;;;;;;;23.67;15.30;;;;;;;13.97;100.00;99501.05;1703180;84;21076;-76
2021/05/29 01:47:44;;;;;;;28.27;16.85;;;;;;;13.98;100.00;99501.42;1703393;84;20931;-79
2021/05/29 01:50:13;;;;;;;23.60;16.57;;;;;;;14.00;100.00;99504.83;1696871;82;20942;-78
2021/05/29 01:52:55;;;;;;;21.75;15.50;;;;;;;14.02;100.00;99504.75;1670841;84;21069;-75
2021/05/29 01:55:28;;;;;;;23.92;16.70;;;;;;;14.04;100.00;99501.05;1655952;86;21091;-75
2021/05/29 01:57:55;;;;;;;21.82;14.75;;;;;;;14.09;100.00;99501.25;1665254;85;21034;-75
2021/05/29 02:00:25;;;;;;;22.98;15.00;;;;;;;14.13;100.00;99497.48;1683781;85;20996;-75
2021/05/29 02:02:53;;;;;;;23.55;16.97;;;;;;;14.17;100.00;99489.70;1669040;85;21104;-74
2021/05/29 02:05:25;;;;;;;21.77;13.93;;;;;;;14.20;100.00;99492.17;1664312;81;21048;-73
2021/05/29 02:07:52;;;;;;;22.93;14.23;;;;;;;14.24;100.00;99491.02;1673574;84;22260;-71
2021/05/29 02:10:24;;;;;;;23.98;15.80;;;;;;;14.26;100.00;99485.15;1670309;85;20968;-72
2021/05/29 02:12:53;;;;;;;17.05;10.55;;;;;;;14.31;100.00;99484.41;1663686;86;21496;-72
2021/05/29 02:15:27;;;;;;;22.63;16.00;;;;;;;14.34;100.00;99486.02;1663576;84;21078;-73
2021/05/29 02:17:57;;;;;;;21.93;15.03;;;;;;;14.39;100.00;99492.71;1663223;85;21047;-74
2021/05/29 02:20:46;;;;;;;19.65;13.50;;;;;;;14.40;100.00;99489.13;1681478;80;21051;-81
2021/05/29 02:23:19;;;;;;;28.32;16.32;;;;;;;14.42;100.00;99488.56;1707593;83;20932;-80
2021/05/29 02:25:47;;;;;;;24.02;15.20;;;;;;;14.44;100.00;99481.83;1715603;83;21526;-84
2021/05/29 02:28:14;;;;;;;26.40;14.50;;;;;;;14.46;100.00;99484.75;1715664;83;20956;-82
2021/05/29 02:30:42;;;;;;;20.15;14.23;;;;;;;14.47;100.00;99479.84;1707962;83;20950;-83
2021/05/29 02:33:09;;;;;;;19.45;12.73;;;;;;;14.46;100.00;99475.96;1693271;84;21064;-82
2021/05/29 02:35:36;;;;;;;19.67;13.75;;;;;;;14.46;100.00;99478.13;1698020;80;21000;-85
2021/05/29 02:38:04;;;;;;;21.48;14.80;;;;;;;14.48;100.00;99478.04;1683473;85;21044;-84
2021/05/29 02:40:31;;;;;;;21.20;14.20;;;;;;;14.47;100.00;99473.22;1683419;85;20996;-82
2021/05/29 02:42:58;;;;;;;19.32;13.03;;;;;;;14.47;100.00;99474.55;1683989;85;21043;-82
2021/05/29 02:45:25;;;;;;;18.20;11.75;;;;;;;14.50;100.00;99467.36;1684813;85;21101;-82
2021/05/29 02:47:53;;;;;;;18.02;11.43;;;;;;;14.52;100.00;99478.71;1684774;85;20941;-80
2021/05/29 02:50:20;;;;;;;21.48;12.03;;;;;;;14.53;100.00;99475.09;1684749;85;20995;-81
2021/05/29 02:52:47;;;;;;;15.85;9.10;;;;;;;14.56;100.00;99474.92;1684753;85;21024;-82
2021/05/29 02:55:21;;;;;;;15.03;11.12;;;;;;;14.58;100.00;99473.03;1651363;86;20966;-80
2021/05/29 02:57:43;;;;;;;16.70;10.63;;;;;;;14.60;100.00;99471.98;1650026;86;21036;-82
2021/05/29 03:00:11;;;;;;;15.05;8.20;;;;;;;14.64;100.00;99468.67;1683609;83;21080;-81
2021/05/29 03:02:38;;;;;;;11.97;9.10;;;;;;;14.71;100.00;99471.30;1683594;83;20943;-81
2021/05/29 03:05:07;;;;;;;10.03;7.35;;;;;;;14.82;100.00;99472.78;1673398;84;20961;-82
2021/05/29 03:07:33;;;;;;;11.65;8.93;;;;;;;14.90;100.00;99466.48;1676724;85;21050;-83
2021/05/29 03:10:01;;;;;;;12.33;9.23;;;;;;;15.02;100.00;99470.16;1662828;85;21578;-81
2021/05/29 03:12:28;;;;;;;9.73;7.42;;;;;;;15.13;100.00;99464.12;1654233;83;21111;-80
2021/05/29 03:14:57;;;;;;;12.90;9.43;;;;;;;15.17;100.00;99465.63;1675124;84;20990;-83
2021/05/29 03:17:24;;;;;;;13.48;9.10;;;;;;;15.19;100.00;99459.75;1658578;85;20982;-81
2021/05/29 03:19:51;;;;;;;13.00;9.30;;;;;;;15.21;100.00;99457.01;1675960;82;20915;-75
2021/05/29 03:22:19;;;;;;;13.70;9.40;;;;;;;15.23;100.00;99458.60;1663127;84;21054;-76
2021/05/29 03:24:46;;;;;;;8.98;6.12;;;;;;;15.28;100.00;99460.95;1641695;86;20948;-75
2021/05/29 03:27:17;;;;;;;15.93;11.10;;;;;;;15.29;100.00;99458.66;1656038;85;21068;-76
2021/05/29 03:29:44;;;;;;;17.00;8.98;;;;;;;15.34;100.00;99463.65;1650548;85;20990;-76
2021/05/29 03:32:11;;;;;;;12.10;8.48;;;;;;;15.39;100.00;99464.18;1650253;86;21082;-76
2021/05/29 03:34:38;;;;;;;14.85;11.08;;;;;;;15.45;100.00;99467.27;1650420;85;21085;-77
2021/05/29 03:37:04;;;;;;;12.88;9.40;;;;;;;15.51;100.00;99463.38;1650566;86;21025;-79
2021/05/29 03:39:32;;;;;;;15.90;11.15;;;;;;;15.54;100.00;99468.45;1650115;85;21021;-78
2021/05/29 03:41:59;;;;;;;17.20;10.93;;;;;;;15.65;100.00;99471.23;1651179;86;21009;-77
2021/05/29 03:44:26;;;;;;;18.42;11.33;;;;;;;15.73;100.00;99463.64;1651348;86;21026;-79
2021/05/29 03:46:53;;;;;;;16.35;12.37;;;;;;;15.83;100.00;99467.83;1653313;85;21080;-79
2021/05/29 03:49:20;;;;;;;14.87;11.00;;;;;;;15.91;100.00;99468.13;1658427;86;20949;-78
2021/05/29 03:51:47;;;;;;;15.30;11.50;;;;;;;15.98;100.00;99469.88;1652622;86;20933;-76
2021/05/29 03:54:14;;;;;;;14.43;10.95;;;;;;;16.03;100.00;99463.76;1642530;86;20960;-76
2021/05/29 03:56:41;;;;;;;14.03;10.90;;;;;;;16.07;100.00;99467.91;1656096;86;21052;-77
2021/05/29 03:59:13;;;;;;;16.20;11.80;;;;;;;16.11;100.00;99473.86;1652883;86;21060;-75
2021/05/29 04:01:38;;;;;;;15.83;11.40;;;;;;;16.13;100.00;99478.59;1661990;85;21057;-76
2021/05/29 04:04:06;;;;;;;14.13;9.48;;;;;;;16.14;100.00;99473.16;1659456;85;21543;-76
2021/05/29 04:06:33;;;;;;;20.08;12.10;;;;;;;16.15;100.00;99474.03;1660524;83;21567;-76
2021/05/29 04:11:48;;;;;;;14.70;11.20;;;;;;;16.24;100.00;99473.83;1802527;78;22483;-78
2021/05/29 04:14:15;;;;;;;14.98;12.10;;;;;;;16.20;100.00;99477.20;1786925;78;21082;-79
2021/05/29 04:16:44;;;;;;;17.82;10.30;;;;;;;16.23;100.00;99474.80;1789768;78;22180;-79
2021/05/29 04:19:10;;;;;;;16.50;10.98;;;;;;;16.29;100.00;99479.69;1776184;78;20991;-75
2021/05/29 04:21:38;;;;;;;14.63;10.03;;;;;;;16.33;100.00;99474.50;1753834;78;21188;-77
2021/05/29 04:24:07;;;;;;;17.45;11.03;;;;;;;16.35;100.00;99471.27;1685161;84;20967;-71
2021/05/29 04:26:35;;;;;;;15.08;11.68;;;;;;;16.34;100.00;99478.88;1691003;83;21046;-76
2021/05/29 04:29:02;;;;;;;16.60;11.08;;;;;;;16.31;100.00;99477.30;1723102;83;21051;-75
2021/05/29 04:31:29;;;;;;;16.02;11.40;;;;;;;16.33;100.00;99479.82;1694914;83;21127;-75
2021/05/29 04:33:56;;;;;;;20.70;11.22;;;;;;;16.38;100.00;99480.36;1677004;84;21014;-76
2021/05/29 04:36:24;;;;;;;13.48;10.35;;;;;;;16.39;100.00;99476.73;1695434;82;21200;-76
2021/05/29 04:38:50;;;;;;;16.45;12.03;;;;;;;16.41;100.00;99477.48;1667985;84;21128;-78
2021/05/29 04:41:22;;;;;;;19.35;11.08;;;;;;;16.48;100.00;99486.70;1682823;83;21409;-78
2021/05/29 04:43:47;;;;;;;17.73;10.95;;;;;;;16.51;100.00;99479.83;1688159;83;21084;-78
2021/05/29 04:46:14;;;;;;;18.77;10.82;;;;;;;16.51;100.00;99486.48;1682572;84;21140;-78
2021/05/29 04:48:41;;;;;;;10.45;8.50;;;;;;;16.49;100.00;99485.73;1682787;84;21081;-77
2021/05/29 04:51:12;;;;;;;17.62;9.43;;;;;;;16.43;99.49;99488.84;1696088;84;21097;-77
2021/05/29 04:53:47;;;;;;;11.05;7.47;;;;;;;16.33;98.56;99491.78;1688441;83;21355;-77
2021/05/29 04:56:15;;;;;;;11.57;7.72;;;;;;;16.20;98.14;99489.16;1665896;84;21128;-77
2021/05/29 04:58:42;;;;;;;9.63;6.50;;;;;;;16.07;97.83;99505.09;1647462;85;21096;-78
2021/05/29 05:01:10;;;;;;;10.28;6.37;;;;;;;15.97;97.90;99497.89;1668786;84;21091;-78
2021/05/29 05:03:38;;;;;;;12.75;6.70;;;;;;;15.84;98.01;99507.16;1660988;86;21111;-78
2021/05/29 05:06:05;;;;;;;9.70;5.20;;;;;;;15.74;97.81;99514.92;1650706;85;21105;-78
2021/05/29 05:08:32;;;;;;;5.55;4.45;;;;;;;15.66;98.51;99510.08;1634540;86;21472;-78
2021/05/29 05:11:01;;;;;;;9.00;5.42;;;;;;;15.60;98.32;99518.48;1639368;85;21085;-78
2021/05/29 05:13:30;;;;;;;9.33;5.50;;;;;;;15.56;98.77;99518.30;1657029;85;21585;-78
2021/05/29 05:15:57;;;;;;;11.08;5.58;;;;;;;15.53;99.38;99519.36;1668092;86;21120;-77
2021/05/29 05:18:24;;;;;;;6.37;4.60;;;;;;;15.43;98.26;99512.95;1662862;86;21450;-78
2021/05/29 05:20:51;;;;;;;6.58;4.03;;;;;;;15.33;98.26;99517.67;1660539;86;21096;-77
2021/05/29 05:23:22;;;;;;;6.03;5.03;;;;;;;15.27;98.82;99530.84;1663479;86;21091;-78
2021/05/29 05:25:52;;;;;;;6.10;4.62;;;;;;;15.25;99.05;99531.42;1665787;86;21118;-78
2021/05/29 05:28:28;;;;;;;9.13;4.67;;;;;;;15.25;99.06;99526.99;1639487;86;21643;-78
2021/05/29 05:31:00;;;;;;;7.60;4.00;;;;;;;15.25;98.56;99528.32;1662968;86;21108;-79
2021/05/29 05:33:27;;;;;;;5.10;3.87;;;;;;;15.23;98.17;99528.89;1662063;86;21096;-76
2021/05/29 05:35:54;;;;;;;6.53;3.75;;;;;;;15.22;98.80;99524.52;1662762;86;21032;-77
2021/05/29 05:38:22;;;;;;;7.37;3.80;;;;;;;15.20;98.08;99523.77;1711927;79;21071;-76
2021/05/29 05:40:49;;;;;;;6.42;3.90;;;;;;;15.21;98.24;99525.97;1723145;83;21035;-76
2021/05/29 05:43:16;;;;;;;5.58;3.15;;;;;;;15.15;97.88;99537.81;1723544;82;21043;-75
2021/05/29 05:45:42;;;;;;;13.53;7.47;;;;;;;15.14;98.29;99544.08;1691208;84;21183;-75
2021/05/29 05:48:09;;;;;;;5.90;4.28;;;;;;;15.15;99.18;99538.30;1683304;83;21099;-75
2021/05/29 05:50:51;;;;;;;7.35;3.40;;;;;;;15.16;98.43;99538.20;1681156;85;21090;-75
2021/05/29 05:53:05;;;;;;;10.30;6.45;;;;;;;15.19;98.82;99538.00;1712360;78;21592;-78
2021/05/29 05:55:31;;;;;;;5.72;3.12;;;;;;;15.23;99.06;99540.83;1744341;80;21348;-78
2021/05/29 05:57:58;;;;;;;6.33;3.45;;;;;;;15.29;98.15;99543.05;1755427;81;21648;-78
2021/05/29 06:00:25;;;;;;;10.10;6.53;;;;;;;15.37;98.42;99543.02;1736131;82;21131;-78
2021/05/29 06:02:52;;;;;;;4.50;2.65;;;;;;;15.41;97.09;99537.41;1736082;81;21581;-78
2021/05/29 06:05:22;;;;;;;5.83;2.90;;;;;;;15.55;96.93;99547.11;1735659;82;21088;-78
2021/05/29 06:07:50;;;;;;;2.70;2.33;;;;;;;15.58;96.31;99543.42;1758212;81;21117;-77
2021/05/29 06:10:19;;;;;;;4.15;2.45;;;;;;;15.63;94.82;99546.13;1722815;83;21637;-77
2021/05/29 06:12:50;;;;;;;6.10;2.92;;;;;;;15.67;95.50;99552.94;1758611;81;21588;-78
2021/05/29 06:20:31;;;;;;;5.67;3.90;;;;;;;15.75;93.88;99553.77;1751470;81;21622;-78
2021/05/29 06:22:58;;;;;;;2.60;2.27;;;;;;;15.79;93.54;99555.75;1735967;82;21120;-78
2021/05/29 06:25:25;;;;;;;6.58;3.12;;;;;;;15.82;92.69;99559.52;1736115;82;21584;-78
2021/05/29 06:27:51;;;;;;;3.35;2.20;;;;;;;15.88;93.04;99561.28;1735049;81;21142;-78
2021/05/29 06:30:20;;;;;;;6.53;2.20;;;;;;;15.98;92.31;99564.16;1731930;81;21091;-77
2021/05/29 06:32:47;;;;;;;3.72;2.08;;;;;;;16.07;92.42;99564.84;1736368;81;21322;-77
2021/05/29 06:35:14;;;;;;;4.05;2.20;;;;;;;16.09;90.88;99562.94;1732835;81;21167;-77
2021/05/29 06:37:41;;;;;;;7.28;2.33;;;;;;;16.11;90.00;99561.03;1732455;81;21432;-78
2021/05/29 06:40:09;;;;;;;6.83;2.47;;;;;;;16.15;89.91;99560.36;1724388;81;21657;-78
2021/05/29 06:42:36;;;;;;;4.62;2.33;;;;;;;16.26;89.75;99555.61;1720906;81;21084;-78
2021/05/29 06:45:04;;;;;;;3.90;2.60;;;;;;;16.45;89.23;99558.69;1737712;81;21688;-77
2021/05/29 06:47:31;;;;;;;5.35;2.85;;;;;;;16.64;88.84;99557.39;1720685;81;21652;-77
2021/05/29 06:49:58;;;;;;;5.50;2.87;;;;;;;16.85;87.97;99570.98;1725852;81;21094;-79
2021/05/29 06:52:28;;;;;;;3.83;2.27;;;;;;;17.05;87.32;99564.23;1738146;81;21057;-78
2021/05/29 06:58:34;;;;;;;3.27;2.55;;;;;;;17.19;86.21;99564.91;1715025;81;21113;-77
2021/05/29 07:00:13;;;;;;;4.90;2.42;;;;;;;17.48;84.22;99570.36;1748382;80;22037;-77
2021/05/29 07:02:40;;;;;;;4.95;2.60;;;;;;;17.55;83.26;99567.59;1722491;81;22040;-78
2021/05/29 07:05:11;;;;;;;3.80;2.30;;;;;;;17.64;83.16;99570.91;1731042;81;21095;-77
2021/05/29 07:07:39;;;;;;;3.37;2.05;;;;;;;17.81;82.53;99569.19;1728058;80;21124;-77
2021/05/29 07:10:08;;;;;;;3.22;2.17;;;;;;;17.99;80.12;99566.07;1736258;81;21500;-78
2021/05/29 07:12:35;;;;;;;8.43;2.60;;;;;;;18.15;79.40;99573.27;1739633;81;21096;-79
2021/05/29 07:15:09;;;;;;;3.70;2.40;;;;;;;18.34;78.43;99573.17;1739601;81;21579;-79
2021/05/29 07:17:41;;;;;;;6.90;3.12;;;;;;;18.53;75.86;99568.08;1712660;82;21741;-77
2021/05/29 07:20:06;;;;;;;3.27;2.00;;;;;;;18.67;75.86;99572.32;1744533;81;21084;-79
2021/05/29 07:22:34;;;;;;;3.37;1.95;;;;;;;18.77;74.67;99571.12;1712384;81;21652;-79
2021/05/29 07:25:06;;;;;;;3.90;2.10;;;;;;;18.95;73.96;99576.80;1694052;83;21165;-78
2021/05/29 07:27:33;;;;;;;6.58;2.17;;;;;;;19.14;72.82;99581.03;1695747;83;21189;-78
2021/05/29 07:30:07;;;;;;;2.08;1.70;;;;;;;19.27;71.81;99578.19;1701127;83;21083;-77
2021/05/29 07:32:29;;;;;;;4.95;1.57;;;;;;;19.37;71.88;99576.48;1695472;83;21102;-77
2021/05/29 07:34:56;;;;;;;3.42;1.60;;;;;;;19.44;72.14;99574.99;1696611;83;21505;-77
2021/05/29 07:37:24;;;;;;;3.10;1.87;;;;;;;19.48;70.24;99576.41;1693215;83;21108;-76
2021/05/29 07:39:51;;;;;;;3.98;1.98;;;;;;;19.42;70.95;99576.94;1696248;83;21249;-77
2021/05/29 07:42:19;;;;;;;5.35;1.80;;;;;;;19.27;69.87;99568.84;1695714;83;21156;-79
2021/05/29 07:44:46;;;;;;;5.85;1.82;;;;;;;19.20;69.87;99570.33;1696556;83;21064;-78
2021/05/29 07:47:12;;;;;;;3.15;1.62;;;;;;;19.12;69.78;99574.09;1696508;83;21151;-77
2021/05/29 07:49:41;;;;;;;3.15;1.50;;;;;;;19.12;69.37;99580.30;1692361;83;21156;-78
2021/05/29 07:52:08;;;;;;;2.55;1.50;;;;;;;19.06;70.28;99576.30;1696392;83;21064;-78
2021/05/29 07:54:35;;;;;;;7.20;1.75;;;;;;;19.01;70.00;99567.83;1692592;83;21068;-78
2021/05/29 07:57:02;;;;;;;1.42;1.32;;;;;;;18.99;70.29;99578.27;1683565;83;21098;-77
2021/05/29 07:59:29;;;;;;;3.15;1.62;;;;;;;18.96;71.04;99576.70;1693139;83;21246;-77
2021/05/29 08:01:56;;;;;;;2.65;1.80;;;;;;;18.89;70.67;99573.29;1694782;83;21140;-78
2021/05/29 08:04:23;;;;;;;3.52;1.52;;;;;;;18.88;71.95;99582.28;1694640;83;21182;-78
2021/05/29 08:06:50;;;;;;;4.58;1.72;;;;;;;18.88;72.10;99579.12;1695904;84;21129;-78
2021/05/29 08:09:17;;;;;;;1.80;1.30;;;;;;;18.96;71.72;99582.52;1696011;83;21477;-77
2021/05/29 08:34:22;;;;;;;4.47;1.80;;;;;;;20.22;65.50;99589.43;1870063;75;27668;-86
2021/05/29 08:36:50;;;;;;;3.30;1.47;;;;;;;20.31;65.64;99586.84;1851126;76;20888;-85
2021/05/29 08:39:17;;;;;;;2.52;1.50;;;;;;;20.41;65.84;99590.05;1838904;77;21270;-86
2021/05/29 08:41:44;;;;;;;4.15;2.00;;;;;;;20.37;64.70;99591.30;1808367;78;20980;-86
2021/05/29 08:44:11;;;;;;;2.35;1.52;;;;;;;20.29;63.83;99598.61;1780375;79;21106;-86
2021/05/29 08:46:40;;;;;;;5.08;1.87;;;;;;;20.21;63.41;99593.94;1801659;77;22199;-86
2021/05/29 08:49:08;;;;;;;9.38;2.00;;;;;;;20.13;63.66;99597.77;1796940;77;21011;-90
2021/05/29 08:51:37;;;;;;;3.27;1.52;;;;;;;20.10;64.77;99598.02;1782112;77;21152;-89
2021/05/29 08:54:04;;;;;;;7.87;2.55;;;;;;;20.02;64.98;99595.16;1794922;78;21080;-89
2021/05/29 08:56:32;;;;;;;4.35;1.80;;;;;;;19.87;65.39;99602.14;1789654;78;21222;-91
2021/05/29 08:59:02;;;;;;;3.80;1.95;;;;;;;19.68;66.33;99609.52;1819983;77;21047;-91
2021/05/29 09:01:29;;;;;;;4.35;2.25;;;;;;;19.52;66.03;99610.89;1805685;77;21039;-90
2021/05/29 09:04:07;;;;;;;2.58;2.17;;;;;;;19.41;66.62;99611.27;1794851;78;21198;-91
2021/05/29 09:06:41;;;;;;;4.12;2.00;;;;;;;19.25;67.78;99610.34;1811296;78;21208;-91
2021/05/29 09:09:11;;;;;;;3.95;1.87;;;;;;;19.13;67.72;99614.02;1818224;78;21087;-91
2021/05/29 09:11:48;;;;;;;4.62;2.30;;;;;;;19.20;67.14;99614.38;1804043;77;21119;-90
2021/05/29 09:14:39;;;;;;;3.40;2.00;;;;;;;19.32;66.60;99613.36;1797664;77;21059;-88
2021/05/29 09:17:24;;;;;;;5.05;2.00;;;;;;;19.56;67.38;99613.19;1823338;77;21078;-89
2021/05/29 09:20:08;;;;;;;7.10;2.27;;;;;;;19.83;65.34;99612.75;1805564;77;21131;-89
2021/05/29 09:22:57;;;;;;;3.70;1.67;;;;;;;19.91;64.02;99611.59;1799140;77;22197;-89
2021/05/29 09:25:25;;;;;;;4.85;2.00;;;;;;;19.94;63.56;99608.31;1821698;77;21074;-88
2021/05/29 09:28:06;;;;;;;6.28;2.10;;;;;;;19.90;61.95;99611.25;1817169;77;21074;-87
2021/05/29 09:30:47;;;;;;;7.80;2.12;;;;;;;19.73;62.44;99609.14;1796531;77;21090;-85
2021/05/29 09:33:21;;;;;;;2.05;1.85;;;;;;;19.67;63.31;99614.98;1762468;79;21040;-84
2021/05/29 09:36:06;;;;;;;2.45;1.47;;;;;;;19.74;64.07;99612.19;1786931;78;21028;-88
2021/05/29 09:38:45;;;;;;;2.35;1.50;;;;;;;19.87;63.94;99610.66;1821086;77;21024;-85
2021/05/29 09:41:21;;;;;;;2.72;1.90;;;;;;;20.10;61.09;99604.70;1828401;77;21068;-87
2021/05/29 09:44:04;;;;;;;1.60;1.22;;;;;;;20.30;60.82;99607.85;1839411;77;21662;-86
2021/05/29 09:47:03;;;;;;;4.25;1.37;;;;;;;20.53;59.20;99606.36;1804751;78;21134;-90
2021/05/29 09:49:53;;;;;;;2.80;1.32;;;;;;;20.69;56.61;99604.56;1798053;76;21117;-88
2021/05/29 09:55:13;;;;;;;3.98;1.47;;;;;;;20.86;58.10;99623.98;1786715;79;21628;-90
2021/05/29 09:57:53;;;;;;;4.40;1.80;;;;;;;20.88;57.97;99625.20;1793588;78;21230;-90
2021/05/29 10:00:20;;;;;;;2.25;1.57;;;;;;;20.84;57.62;99621.09;1814295;77;21024;-88
2021/05/29 10:03:02;;;;;;;8.40;2.10;;;;;;;20.80;58.33;99625.89;1789637;77;21082;-87
2021/05/29 10:05:32;;;;;;;3.25;1.67;;;;;;;20.70;58.08;99620.47;1820035;77;21672;-87
2021/05/29 10:08:01;;;;;;;2.02;1.55;;;;;;;20.64;58.25;99618.34;1798142;77;21348;-88
2021/05/29 10:10:28;;;;;;;6.12;1.98;;;;;;;20.64;59.45;99618.34;1791008;77;21074;-88
2021/05/29 10:12:57;;;;;;;3.37;1.60;;;;;;;20.67;58.06;99614.06;1791543;78;21547;-88
2021/05/29 10:15:26;;;;;;;5.10;1.65;;;;;;;20.70;59.00;99620.97;1778987;78;21092;-89
2021/05/29 10:18:00;;;;;;;7.28;1.82;;;;;;;20.74;58.47;99619.22;1816400;77;21086;-87
2021/05/29 10:20:27;;;;;;;7.20;1.60;;;;;;;20.79;58.08;99615.30;1825663;77;21580;-88
2021/05/29 10:22:55;;;;;;;3.40;1.40;;;;;;;20.84;58.02;99615.24;1828087;77;21662;-87
2021/05/29 10:25:25;;;;;;;7.40;2.25;;;;;;;20.96;56.56;99610.66;1792815;78;21091;-87
2021/05/29 10:27:55;;;;;;;11.63;1.80;;;;;;;21.11;56.68;99610.61;1808896;78;21340;-87
2021/05/29 10:30:25;;;;;;;13.47;2.00;;;;;;;21.23;55.77;99619.37;1800764;78;21776;-85
2021/05/29 10:33:17;;;;;;;1.90;1.50;;;;;;;21.26;55.33;99612.93;1792630;78;21031;-87
2021/05/29 10:35:46;;;;;;;3.25;1.47;;;;;;;21.21;56.03;99615.15;1827003;78;21110;-88
2021/05/29 10:38:14;;;;;;;4.33;1.90;;;;;;;21.06;55.26;99610.19;1784216;79;21104;-88
2021/05/29 10:40:43;;;;;;;4.90;1.90;;;;;;;21.00;55.77;99616.08;1799856;78;21150;-88
2021/05/29 10:43:20;;;;;;;3.02;1.60;;;;;;;20.96;56.68;99620.03;1789009;79;21075;-88
2021/05/29 10:46:03;;;;;;;16.85;10.28;;;;;;;20.97;56.38;99617.70;1796092;78;21024;-87
2021/05/29 10:48:47;;;;;;;5.83;4.58;;;;;;;21.02;55.38;99618.63;1800464;77;21837;-87
2021/05/29 10:51:14;;;;;;;13.48;4.05;;;;;;;21.10;57.31;99619.64;1754653;79;21138;-88
2021/05/29 10:53:57;;;;;;;5.87;3.47;;;;;;;21.21;55.57;99613.34;1776504;79;21051;-87
2021/05/29 10:56:45;;;;;;;2.52;1.92;;;;;;;21.35;55.91;99609.42;1764595;80;21589;-86
2021/05/29 10:59:36;;;;;;;3.67;1.67;;;;;;;21.50;55.73;99612.56;1783073;79;21158;-88
2021/05/29 11:02:15;;;;;;;6.97;2.20;;;;;;;21.60;55.53;99612.56;1785525;79;21151;-87
2021/05/29 11:04:52;;;;;;;4.03;1.77;;;;;;;21.62;54.52;99605.23;1796018;79;21068;-87
2021/05/29 11:07:27;;;;;;;2.90;2.27;;;;;;;21.60;54.94;99609.88;1792538;79;21087;-85
2021/05/29 11:09:56;;;;;;;5.55;2.25;;;;;;;21.62;55.38;99610.59;1794777;79;21079;-86
2021/05/29 11:12:50;;;;;;;6.47;3.00;;;;;;;21.64;54.69;99612.64;1796009;79;21076;-88
2021/05/29 11:15:17;;;;;;;12.45;2.65;;;;;;;21.67;54.08;99612.34;1785473;79;21070;-88
2021/05/29 11:18:09;;;;;;;15.50;3.25;;;;;;;21.51;53.53;99617.80;1795963;79;21123;-88
2021/05/29 11:21:03;;;;;;;5.90;2.58;;;;;;;21.30;53.65;99615.66;1795542;79;21126;-85
2021/05/29 11:23:30;;;;;;;5.47;3.17;;;;;;;21.21;55.09;99620.50;1799195;77;20992;-87
2021/05/29 11:25:58;;;;;;;4.78;3.10;;;;;;;21.00;54.00;99616.58;1811802;76;21040;-87
2021/05/29 11:28:26;;;;;;;6.78;1.90;;;;;;;20.85;55.30;99616.11;1787791;79;21091;-85
2021/05/29 11:30:58;;;;;;;6.15;2.20;;;;;;;20.81;55.83;99616.02;1794009;79;21358;-86
2021/05/29 11:33:25;;;;;;;4.55;2.52;;;;;;;20.82;55.52;99614.56;1825664;77;21195;-87
2021/05/29 11:35:53;;;;;;;2.20;1.85;;;;;;;20.89;54.73;99620.19;1795161;78;21040;-89
2021/05/29 11:38:35;;;;;;;3.95;2.10;;;;;;;20.93;55.60;99606.90;1806005;77;21634;-86
2021/05/29 11:41:09;;;;;;;4.42;2.12;;;;;;;21.04;54.84;99613.48;1820829;77;21139;-87
2021/05/29 11:43:45;;;;;;;2.08;1.50;;;;;;;21.12;54.00;99612.83;1796878;77;21091;-87
2021/05/29 11:46:18;;;;;;;4.62;2.05;;;;;;;21.09;54.32;99611.73;1797062;79;21312;-88
2021/05/29 11:49:05;;;;;;;3.90;1.82;;;;;;;20.96;53.87;99617.36;1793669;79;21598;-88
2021/05/29 11:51:36;;;;;;;5.42;1.80;;;;;;;20.77;55.60;99610.08;1776902;79;21190;-86
2021/05/29 11:54:19;;;;;;;5.17;1.50;;;;;;;20.61;55.08;99613.73;1797988;78;21609;-88
2021/05/29 11:56:51;;;;;;;;;;;;;;;20.52;54.25;99620.23;1782164;77;21138;-88
2021/05/29 11:59:27;;;;;;;3.27;1.70;;;;;;;20.41;55.42;99622.98;1788674;77;20586;-88
2021/05/29 12:01:55;;;;;;;5.45;1.70;;;;;;;20.38;55.01;99619.71;1813058;77;21865;-92
2021/05/29 12:04:28;;;;;;;8.35;2.00;;;;;;;20.41;54.77;99616.80;1800508;77;21068;-92
2021/05/29 12:07:02;;;;;;;5.47;1.92;;;;;;;20.47;55.95;99613.57;1815705;77;21117;-88
2021/05/29 12:09:41;;;;;;;1.65;1.27;;;;;;;20.48;55.22;99615.28;1794943;78;21600;-87
2021/05/29 12:12:08;;;;;;;4.83;1.50;;;;;;;20.52;55.69;99616.22;1789702;79;21051;-87
2021/05/29 12:14:39;;;;;;;1.65;1.50;;;;;;;20.49;55.51;99621.81;1789754;79;28588;-90